createdAt,value
2023-08-26T00:01:38.633Z,94986.75
2023-08-26T00:04:05.710Z,94977.59
2023-08-26T00:06:32.445Z,94977.28
2023-08-26T00:08:59.138Z,94977.19
2023-08-26T00:11:25.857Z,94980.38
2023-08-26T00:13:52.576Z,94975.16
2023-08-26T00:16:19.278Z,94978.66
2023-08-26T00:18:48.380Z,94972.63
2023-08-26T00:21:16.070Z,94977.28
2023-08-26T00:23:42.914Z,94980.72
2023-08-26T00:26:12.401Z,94982.41
2023-08-26T00:28:39.125Z,94979.09
2023-08-26T00:31:05.816Z,94971.09
2023-08-26T00:33:32.540Z,94951.78
2023-08-26T00:35:59.191Z,94947.84
2023-08-26T00:38:26.089Z,94967.03
2023-08-26T00:40:52.824Z,94973.88
2023-08-26T00:43:19.446Z,94966.84
2023-08-26T00:45:47.585Z,94973.88
2023-08-26T00:48:15.542Z,94967.91
2023-08-26T00:50:44.898Z,94971.97
2023-08-26T00:53:13.563Z,94948.91
2023-08-26T00:55:41.680Z,94959.91
2023-08-26T00:58:08.861Z,94968.44
2023-08-26T01:00:37.552Z,94982.41
2023-08-26T01:03:05.289Z,94982.28
2023-08-26T01:05:32.131Z,94953.47
2023-08-26T01:08:01.088Z,94985.03
2023-08-26T01:11:05.637Z,94968.06
2023-08-26T01:14:03.463Z,94975.31
2023-08-26T01:16:34.549Z,94981.41
2023-08-26T01:19:03.450Z,94987.56
2023-08-26T01:21:37.392Z,94971.59
2023-08-26T01:24:05.448Z,94977.34
2023-08-26T01:26:32.133Z,94973.16
2023-08-26T01:28:59.067Z,94971.00
2023-08-26T01:31:29.530Z,94984.88
2023-08-26T01:34:11.571Z,94983.13
2023-08-26T01:36:41.683Z,94981.50
2023-08-26T01:39:09.275Z,94979.81
2023-08-26T01:41:37.019Z,94975.09
2023-08-26T01:44:03.955Z,94975.41
2023-08-26T01:46:40.377Z,94981.06
2023-08-26T01:49:07.231Z,94983.19
2023-08-26T01:51:34.223Z,94971.22
2023-08-26T01:54:00.920Z,94948.75
2023-08-26T01:56:27.666Z,94973.28
2023-08-26T01:58:54.232Z,94976.81
2023-08-26T02:01:21.091Z,94977.56
2023-08-26T02:03:47.908Z,94952.06
2023-08-26T02:06:14.595Z,94968.13
2023-08-26T02:08:41.209Z,94968.44
2023-08-26T02:11:08.071Z,94969.63
2023-08-26T02:13:34.694Z,94971.19
2023-08-26T02:16:01.377Z,94961.28
2023-08-26T02:18:28.061Z,94941.25
2023-08-26T02:20:54.770Z,94959.38
2023-08-26T02:23:21.438Z,94950.88
2023-08-26T02:25:48.102Z,94945.91
2023-08-26T02:28:14.742Z,94927.75
2023-08-26T02:30:41.533Z,94956.44
2023-08-26T02:33:10.202Z,94959.38
2023-08-26T02:35:37.039Z,94958.06
2023-08-26T02:38:03.956Z,94940.94
2023-08-26T02:40:30.634Z,94952.97
2023-08-26T02:42:57.387Z,94939.69
2023-08-26T02:45:24.037Z,94955.88
2023-08-26T02:47:50.831Z,94949.59
2023-08-26T02:50:17.526Z,94958.28
2023-08-26T02:52:44.144Z,94958.19
2023-08-26T02:55:10.826Z,94956.09
2023-08-26T02:57:37.615Z,94943.38
2023-08-26T03:00:05.724Z,94943.16
2023-08-26T03:02:32.480Z,94955.72
2023-08-26T03:04:59.236Z,94958.75
2023-08-26T03:07:25.916Z,94946.25
2023-08-26T03:09:52.586Z,94953.69
2023-08-26T03:12:19.215Z,94957.00
2023-08-26T03:14:45.952Z,94955.47
2023-08-26T03:17:12.592Z,94951.78
2023-08-26T03:19:39.189Z,94967.41
2023-08-26T03:22:05.831Z,94962.03
2023-08-26T03:24:37.016Z,94964.50
2023-08-26T03:27:03.643Z,94971.38
2023-08-26T03:29:30.833Z,94968.50
2023-08-26T03:31:57.421Z,94975.06
2023-08-26T03:34:24.064Z,94971.41
2023-08-26T03:36:50.734Z,94977.91
2023-08-26T03:39:17.448Z,94984.81
2023-08-26T03:41:44.135Z,94979.13
2023-08-26T03:44:10.824Z,94981.13
2023-08-26T03:46:37.449Z,94981.56
2023-08-26T03:49:04.180Z,94982.50
2023-08-26T03:51:31.210Z,94981.53
2023-08-26T03:53:57.816Z,94988.13
2023-08-26T03:56:24.410Z,94995.16
2023-08-26T03:58:53.214Z,94980.88
2023-08-26T04:01:19.842Z,94978.88
2023-08-26T04:03:46.532Z,94986.59
2023-08-26T04:06:17.185Z,94984.91
2023-08-26T04:08:43.828Z,94982.25
2023-08-26T04:11:10.454Z,94995.72
2023-08-26T04:13:37.331Z,94991.88
2023-08-26T04:16:04.832Z,94999.09
2023-08-26T04:18:32.532Z,95000.53
2023-08-26T04:20:59.169Z,95006.28
2023-08-26T04:23:25.801Z,94986.69
2023-08-26T04:25:55.452Z,95001.19
2023-08-26T04:28:22.164Z,94995.00
2023-08-26T04:30:48.902Z,94990.59
2023-08-26T04:33:15.624Z,95012.88
2023-08-26T04:35:42.316Z,95012.66
2023-08-26T04:38:08.918Z,95016.78
2023-08-26T04:40:35.595Z,95009.25
2023-08-26T04:43:04.947Z,95013.25
2023-08-26T04:45:31.889Z,95012.97
2023-08-26T04:47:59.064Z,95017.88
2023-08-26T04:50:26.902Z,95021.97
2023-08-26T04:52:53.491Z,95012.50
2023-08-26T04:55:20.268Z,95023.59
2023-08-26T04:57:46.940Z,95025.63
2023-08-26T05:00:14.651Z,95012.91
2023-08-26T05:02:41.442Z,95017.69
2023-08-26T05:05:08.402Z,95018.84
2023-08-26T05:07:35.123Z,95017.78
2023-08-26T05:10:04.601Z,95022.75
2023-08-26T05:12:32.016Z,95022.31
2023-08-26T05:14:58.575Z,95019.50
2023-08-26T05:17:25.318Z,95018.59
2023-08-26T05:19:52.674Z,95036.19
2023-08-26T05:22:19.357Z,95018.28
2023-08-26T05:24:46.106Z,95035.06
2023-08-26T05:27:12.856Z,95037.75
2023-08-26T05:29:39.507Z,95039.13
2023-08-26T05:32:06.284Z,95027.94
2023-08-26T05:34:33.169Z,95010.50
2023-08-26T05:36:59.946Z,95037.50
2023-08-26T05:39:26.546Z,95026.97
2023-08-26T05:41:53.219Z,95011.25
2023-08-26T05:44:19.814Z,95040.25
2023-08-26T05:46:46.401Z,95027.44
2023-08-26T05:49:12.997Z,95029.22
2023-08-26T05:51:39.689Z,95037.53
2023-08-26T05:54:07.125Z,95024.28
2023-08-26T05:56:33.931Z,95016.97
2023-08-26T05:59:00.550Z,95023.34
2023-08-26T06:01:27.222Z,95046.66
2023-08-26T06:03:53.951Z,95037.41
2023-08-26T06:06:20.718Z,95034.69
2023-08-26T06:08:47.353Z,95039.34
2023-08-26T06:11:13.981Z,95035.66
2023-08-26T06:13:40.618Z,95029.75
2023-08-26T06:16:07.252Z,95029.25
2023-08-26T06:18:33.910Z,95035.53
2023-08-26T06:21:00.545Z,95023.94
2023-08-26T06:23:27.253Z,95034.09
2023-08-26T06:25:55.130Z,95035.25
2023-08-26T06:28:22.271Z,95035.78
2023-08-26T06:30:48.969Z,95038.50
2023-08-26T06:33:15.890Z,95028.88
2023-08-26T06:35:48.725Z,95034.44
2023-08-26T06:38:16.248Z,95039.16
2023-08-26T06:40:43.045Z,95033.06
2023-08-26T06:43:09.973Z,95054.75
2023-08-26T06:45:36.763Z,95048.22
2023-08-26T06:48:03.582Z,95042.53
2023-08-26T06:50:30.354Z,95037.91
2023-08-26T06:52:56.929Z,95049.66
2023-08-26T06:55:23.830Z,95050.25
2023-08-26T06:57:50.508Z,95057.19
2023-08-26T07:00:17.369Z,95050.91
2023-08-26T07:02:44.020Z,95054.13
2023-08-26T07:05:10.683Z,95052.47
2023-08-26T07:07:37.697Z,95055.53
2023-08-26T07:10:06.229Z,95057.19
2023-08-26T07:12:33.075Z,95053.88
2023-08-26T07:14:59.831Z,95051.88
2023-08-26T07:17:26.485Z,95053.69
2023-08-26T07:19:53.094Z,95036.97
2023-08-26T07:22:27.191Z,95053.47
2023-08-26T07:24:56.539Z,95055.00
2023-08-26T07:27:24.464Z,95055.72
2023-08-26T07:29:51.266Z,95034.31
2023-08-26T07:32:17.937Z,95051.75
2023-08-26T07:34:44.547Z,95040.22
2023-08-26T07:37:11.233Z,95043.09
2023-08-26T07:39:37.891Z,95034.72
2023-08-26T07:42:05.216Z,95041.47
2023-08-26T07:44:31.859Z,95039.16
2023-08-26T07:46:58.749Z,95046.84
2023-08-26T07:49:25.442Z,95035.47
2023-08-26T07:51:52.069Z,95034.34
2023-08-26T07:54:18.831Z,95028.00
2023-08-26T07:56:45.456Z,95026.09
2023-08-26T07:59:12.085Z,95029.81
2023-08-26T08:01:38.688Z,95032.34
2023-08-26T08:04:05.564Z,95030.88
2023-08-26T08:06:32.310Z,95038.56
2023-08-26T08:08:59.045Z,95023.16
2023-08-26T08:11:25.705Z,95028.97
2023-08-26T08:13:52.575Z,95027.91
2023-08-26T08:16:19.295Z,95025.75
2023-08-26T08:18:45.938Z,95019.47
2023-08-26T08:21:12.636Z,95012.53
2023-08-26T08:23:39.562Z,95021.72
2023-08-26T08:26:06.245Z,95005.09
2023-08-26T08:28:32.882Z,95016.53
2023-08-26T08:31:00.048Z,95012.25
2023-08-26T08:33:26.867Z,95017.84
2023-08-26T08:35:53.494Z,95016.72
2023-08-26T08:38:20.148Z,95009.13
2023-08-26T08:40:46.838Z,95018.16
2023-08-26T08:43:15.066Z,95011.38
2023-08-26T08:45:43.439Z,95020.69
2023-08-26T08:48:11.571Z,95013.16
2023-08-26T08:50:39.017Z,95020.13
2023-08-26T08:53:07.513Z,95012.81
2023-08-26T08:55:34.231Z,94997.16
2023-08-26T08:58:02.640Z,94981.19
2023-08-26T09:00:30.766Z,95011.78
2023-08-26T09:02:59.599Z,94997.41
2023-08-26T09:05:27.213Z,94996.81
2023-08-26T09:07:55.704Z,94993.69
2023-08-26T09:10:23.768Z,94997.97
2023-08-26T09:12:50.692Z,94993.31
2023-08-26T09:15:17.593Z,94986.84
2023-08-26T09:17:47.686Z,94980.00
2023-08-26T09:20:14.567Z,94970.03
2023-08-26T09:22:41.822Z,94972.97
2023-08-26T09:25:08.834Z,94982.00
2023-08-26T09:27:42.379Z,94976.28
2023-08-26T09:30:09.949Z,94986.81
2023-08-26T09:32:44.558Z,94979.22
2023-08-26T09:35:19.316Z,94971.78
2023-08-26T09:38:03.718Z,94982.13
2023-08-26T09:40:31.024Z,94971.38
2023-08-26T09:42:57.782Z,94961.38
2023-08-26T09:45:25.263Z,94958.84
2023-08-26T09:47:52.784Z,94953.00
2023-08-26T09:50:32.444Z,94935.47
2023-08-26T09:52:59.493Z,94942.44
2023-08-26T09:55:26.927Z,94931.16
2023-08-26T09:57:54.404Z,94954.03
2023-08-26T10:00:21.742Z,94948.16
2023-08-26T10:02:50.740Z,94944.22
2023-08-26T10:05:21.989Z,94948.09
2023-08-26T10:07:51.037Z,94952.16
2023-08-26T10:10:32.773Z,94943.44
2023-08-26T10:13:05.748Z,94937.91
2023-08-26T10:15:35.007Z,94943.28
2023-08-26T10:18:17.297Z,94935.94
2023-08-26T10:20:45.559Z,94929.03
2023-08-26T10:23:13.685Z,94906.06
2023-08-26T10:25:41.126Z,94936.13
2023-08-26T10:28:08.288Z,94934.53
2023-08-26T10:30:35.130Z,94943.91
2023-08-26T10:33:03.298Z,94914.78
2023-08-26T10:35:30.105Z,94905.59
2023-08-26T10:38:16.932Z,94930.88
2023-08-26T10:40:43.627Z,94915.28
2023-08-26T10:43:13.352Z,94926.28
2023-08-26T10:45:48.301Z,94921.97
2023-08-26T10:48:15.137Z,94913.09
2023-08-26T10:50:45.411Z,94928.28
2023-08-26T10:53:22.861Z,94914.53
2023-08-26T10:55:53.297Z,94899.69
2023-08-26T10:58:21.907Z,94906.03
2023-08-26T11:00:50.889Z,94889.88
2023-08-26T11:03:22.253Z,94910.19
2023-08-26T11:06:02.717Z,94906.28
2023-08-26T11:08:29.649Z,94900.53
2023-08-26T11:10:56.307Z,94895.34
2023-08-26T11:13:23.914Z,94893.88
2023-08-26T11:15:52.398Z,94892.59
2023-08-26T11:18:21.964Z,94891.06
2023-08-26T11:20:50.123Z,94884.94
2023-08-26T11:23:16.885Z,94886.13
2023-08-26T11:25:43.656Z,94883.00
2023-08-26T11:28:15.350Z,94885.59
2023-08-26T11:30:44.192Z,94887.00
2023-08-26T11:33:18.779Z,94884.28
2023-08-26T11:35:58.786Z,94880.38
2023-08-26T11:38:36.875Z,94876.09
2023-08-26T11:41:07.688Z,94878.84
2023-08-26T11:43:37.802Z,94872.25
2023-08-26T11:46:07.951Z,94865.31
2023-08-26T11:48:38.300Z,94869.19
2023-08-26T11:51:05.679Z,94860.88
2023-08-26T11:53:32.514Z,94850.81
2023-08-26T11:55:59.329Z,94861.25
2023-08-26T11:58:29.231Z,94856.09
2023-08-26T12:00:56.867Z,94852.09
2023-08-26T12:03:23.580Z,94851.31
2023-08-26T12:05:53.871Z,94847.75
2023-08-26T12:08:22.593Z,94845.69
2023-08-26T12:10:50.825Z,94838.88
2023-08-26T12:13:17.983Z,94841.25
2023-08-26T12:15:45.365Z,94835.44
2023-08-26T12:18:12.759Z,94838.34
2023-08-26T12:20:42.178Z,94836.88
2023-08-26T12:23:09.127Z,94819.25
2023-08-26T12:25:37.751Z,94829.91
2023-08-26T12:28:25.134Z,94819.81
2023-08-26T12:30:52.801Z,94812.47
2023-08-26T12:33:26.296Z,94802.28
2023-08-26T12:35:55.893Z,94812.03
2023-08-26T12:38:24.232Z,94808.69
2023-08-26T12:40:51.411Z,94805.34
2023-08-26T12:43:21.339Z,94802.19
2023-08-26T12:45:50.457Z,94804.03
2023-08-26T12:48:27.973Z,94793.00
2023-08-26T12:51:04.828Z,94794.03
2023-08-26T12:53:31.509Z,94799.06
2023-08-26T12:55:59.394Z,94786.25
2023-08-26T12:58:26.673Z,94791.06
2023-08-26T13:00:53.454Z,94787.81
2023-08-26T13:03:20.374Z,94781.34
2023-08-26T13:05:47.251Z,94785.00
2023-08-26T13:08:15.278Z,94774.00
2023-08-26T13:10:42.039Z,94771.78
2023-08-26T13:13:08.692Z,94773.59
2023-08-26T13:15:39.395Z,94768.13
2023-08-26T13:18:06.251Z,94765.25
2023-08-26T13:20:32.925Z,94752.63
2023-08-26T13:22:59.646Z,94756.41
2023-08-26T13:25:26.312Z,94762.38
2023-08-26T13:27:52.966Z,94764.72
2023-08-26T13:30:19.617Z,94753.94
2023-08-26T13:32:46.318Z,94759.16
2023-08-26T13:35:14.020Z,94743.25
2023-08-26T13:37:42.059Z,94747.91
2023-08-26T13:40:09.196Z,94759.22
2023-08-26T13:42:35.844Z,94741.00
2023-08-26T13:45:02.488Z,94750.63
2023-08-26T13:47:29.212Z,94741.06
2023-08-26T13:49:55.911Z,94726.50
2023-08-26T13:52:22.583Z,94732.53
2023-08-26T13:54:49.234Z,94730.03
2023-08-26T13:57:17.410Z,94728.13
2023-08-26T13:59:44.088Z,94727.50
2023-08-26T14:02:10.770Z,94729.41
2023-08-26T14:04:37.677Z,94723.84
2023-08-26T14:07:04.587Z,94723.25
2023-08-26T14:09:31.230Z,94741.88
2023-08-26T14:11:59.799Z,94709.56
2023-08-26T14:14:26.441Z,94726.69
2023-08-26T14:16:53.195Z,94707.59
2023-08-26T14:19:19.866Z,94718.56
2023-08-26T14:21:46.511Z,94715.56
2023-08-26T14:24:13.153Z,94705.13
2023-08-26T14:26:40.264Z,94704.22
2023-08-26T14:29:07.189Z,94710.56
2023-08-26T14:31:33.841Z,94718.69
2023-08-26T14:34:00.568Z,94707.94
2023-08-26T14:36:27.228Z,94703.97
2023-08-26T14:38:55.062Z,94692.81
2023-08-26T14:41:21.709Z,94710.94
2023-08-26T14:43:49.811Z,94715.22
2023-08-26T14:46:16.511Z,94718.53
2023-08-26T14:48:43.355Z,94713.78
2023-08-26T14:51:10.035Z,94721.94
2023-08-26T14:53:37.875Z,94727.19
2023-08-26T14:56:04.735Z,94739.63
2023-08-26T14:58:31.493Z,94733.03
2023-08-26T15:00:58.245Z,94743.91
2023-08-26T15:03:25.472Z,94726.81
2023-08-26T15:05:59.347Z,94725.44
2023-08-26T15:08:26.298Z,94733.53
2023-08-26T15:10:53.226Z,94721.00
2023-08-26T15:13:22.135Z,94711.16
2023-08-26T15:15:49.560Z,94713.75
2023-08-26T15:18:19.193Z,94723.88
2023-08-26T15:20:46.984Z,94728.22
2023-08-26T15:23:15.637Z,94728.31
2023-08-26T15:25:44.769Z,94730.59
2023-08-26T15:28:11.769Z,94734.06
2023-08-26T15:30:38.524Z,94734.34
2023-08-26T15:33:05.588Z,94721.50
2023-08-26T15:35:32.622Z,94721.94
2023-08-26T15:37:59.727Z,94733.25
2023-08-26T15:40:26.559Z,94733.13
2023-08-26T15:42:56.036Z,94730.13
2023-08-26T15:45:23.054Z,94731.47
2023-08-26T15:47:51.319Z,94732.22
2023-08-26T15:50:18.205Z,94732.97
2023-08-26T15:52:44.921Z,94726.34
2023-08-26T15:55:11.694Z,94724.84
2023-08-26T15:57:38.281Z,94732.69
2023-08-26T16:00:05.396Z,94737.28
2023-08-26T16:02:32.134Z,94733.75
2023-08-26T16:04:58.896Z,94735.00
2023-08-26T16:07:25.587Z,94728.19
2023-08-26T16:09:52.256Z,94741.50
2023-08-26T16:12:18.941Z,94739.63
2023-08-26T16:14:45.597Z,94744.22
2023-08-26T16:17:12.455Z,94730.34
2023-08-26T16:19:39.167Z,94735.06
2023-08-26T16:22:05.858Z,94705.53
2023-08-26T16:24:32.506Z,94731.50
2023-08-26T16:26:59.151Z,94732.72
2023-08-26T16:29:25.820Z,94722.38
2023-08-26T16:31:52.499Z,94730.22
2023-08-26T16:34:19.627Z,94716.91
2023-08-26T16:36:46.384Z,94733.16
2023-08-26T16:39:14.216Z,94736.41
2023-08-26T16:41:41.006Z,94733.75
2023-08-26T16:44:07.658Z,94726.81
2023-08-26T16:46:34.346Z,94740.25
2023-08-26T16:49:01.100Z,94732.16
2023-08-26T16:51:27.751Z,94749.59
2023-08-26T16:53:54.337Z,94754.78
2023-08-26T16:56:20.979Z,94743.13
2023-08-26T16:58:47.862Z,94753.94
2023-08-26T17:01:14.521Z,94751.91
2023-08-26T17:03:41.247Z,94754.28
2023-08-26T17:06:09.304Z,94762.13
2023-08-26T17:08:36.662Z,94756.25
2023-08-26T17:11:04.898Z,94773.84
2023-08-26T17:13:31.839Z,94770.56
2023-08-26T17:15:58.886Z,94771.91
2023-08-26T17:18:25.589Z,94769.09
2023-08-26T17:20:52.284Z,94769.25
2023-08-26T17:23:18.945Z,94762.00
2023-08-26T17:25:45.659Z,94763.63
2023-08-26T17:28:12.381Z,94767.78
2023-08-26T17:30:39.300Z,94764.50
2023-08-26T17:33:06.455Z,94763.50
2023-08-26T17:35:37.422Z,94763.75
2023-08-26T17:38:10.597Z,94738.03
2023-08-26T17:40:48.109Z,94734.75
2023-08-26T17:43:15.190Z,94760.47
2023-08-26T17:45:45.796Z,94762.38
2023-08-26T17:48:13.153Z,94762.31
2023-08-26T17:50:54.036Z,94775.59
2023-08-26T17:53:21.152Z,94779.38
2023-08-26T17:55:47.953Z,94774.47
2023-08-26T17:58:15.611Z,94793.63
2023-08-26T18:00:43.616Z,94784.72
2023-08-26T18:03:11.847Z,94802.78
2023-08-26T18:05:39.367Z,94784.88
2023-08-26T18:08:07.257Z,94794.00
2023-08-26T18:10:35.185Z,94797.50
2023-08-26T18:13:07.882Z,94803.59
2023-08-26T18:15:36.107Z,94804.84
2023-08-26T18:18:03.805Z,94812.91
2023-08-26T18:20:30.698Z,94808.47
2023-08-26T18:22:57.719Z,94808.53
2023-08-26T18:25:24.697Z,94808.16
2023-08-26T18:27:52.776Z,94805.25
2023-08-26T18:30:19.789Z,94811.19
2023-08-26T18:32:46.558Z,94813.13
2023-08-26T18:35:13.314Z,94813.94
2023-08-26T18:37:40.432Z,94813.53
2023-08-26T18:40:07.589Z,94803.38
2023-08-26T18:42:34.722Z,94818.50
2023-08-26T18:45:01.926Z,94821.59
2023-08-26T18:47:28.639Z,94818.88
2023-08-26T18:49:55.340Z,94834.19
2023-08-26T18:52:22.100Z,94834.06
2023-08-26T18:54:48.706Z,94837.06
2023-08-26T18:57:15.500Z,94835.47
2023-08-26T18:59:42.293Z,94848.81
2023-08-26T19:02:09.046Z,94840.09
2023-08-26T19:04:36.752Z,94818.06
2023-08-26T19:07:03.747Z,94836.31
2023-08-26T19:09:31.473Z,94837.91
2023-08-26T19:11:58.569Z,94842.59
2023-08-26T19:14:25.173Z,94845.63
2023-08-26T19:16:52.022Z,94838.00
2023-08-26T19:19:18.775Z,94838.22
2023-08-26T19:21:45.469Z,94841.06
2023-08-26T19:24:12.207Z,94838.06
2023-08-26T19:26:38.990Z,94839.38
2023-08-26T19:29:05.661Z,94832.53
2023-08-26T19:31:32.371Z,94829.53
2023-08-26T19:33:59.007Z,94837.91
2023-08-26T19:36:26.910Z,94832.84
2023-08-26T19:38:53.653Z,94836.03
2023-08-26T19:41:20.465Z,94829.41
2023-08-26T19:43:47.444Z,94838.69
2023-08-26T19:46:14.232Z,94841.31
2023-08-26T19:48:54.726Z,94828.28
2023-08-26T19:51:23.028Z,94848.59
2023-08-26T19:53:49.739Z,94839.59
2023-08-26T19:56:16.323Z,94843.88
2023-08-26T19:58:43.021Z,94835.28
2023-08-26T20:01:09.675Z,94846.56
2023-08-26T20:03:36.516Z,94839.50
2023-08-26T20:06:03.384Z,94840.63
2023-08-26T20:08:29.994Z,94839.16
2023-08-26T20:10:56.717Z,94851.25
2023-08-26T20:13:23.510Z,94839.63
2023-08-26T20:15:50.164Z,94845.56
2023-08-26T20:18:16.791Z,94847.22
2023-08-26T20:20:43.417Z,94842.94
2023-08-26T20:23:10.103Z,94858.19
2023-08-26T20:25:47.226Z,94844.78
2023-08-26T20:28:15.015Z,94852.59
2023-08-26T20:30:41.708Z,94845.69
2023-08-26T20:33:08.429Z,94842.56
2023-08-26T20:35:35.175Z,94845.38
2023-08-26T20:38:01.811Z,94833.28
2023-08-26T20:40:28.805Z,94852.41
2023-08-26T20:42:55.435Z,94835.03
2023-08-26T20:45:22.140Z,94852.09
2023-08-26T20:47:48.826Z,94844.75
2023-08-26T20:50:15.496Z,94846.13
2023-08-26T20:52:42.246Z,94844.81
2023-08-26T20:55:09.207Z,94850.34
2023-08-26T20:57:35.925Z,94843.69
2023-08-26T21:00:02.795Z,94855.00
2023-08-26T21:02:29.615Z,94861.91
2023-08-26T21:04:56.423Z,94870.91
2023-08-26T21:07:23.275Z,94856.03
2023-08-26T21:09:49.983Z,94870.00
2023-08-26T21:12:16.730Z,94862.56
2023-08-26T21:14:43.406Z,94878.00
2023-08-26T21:17:10.052Z,94872.59
2023-08-26T21:19:36.705Z,94871.06
2023-08-26T21:22:03.426Z,94867.28
2023-08-26T21:24:30.104Z,94876.13
2023-08-26T21:26:56.794Z,94874.81
2023-08-26T21:29:23.974Z,94841.72
2023-08-26T21:31:50.863Z,94880.53
2023-08-26T21:34:18.175Z,94878.25
2023-08-26T21:36:44.995Z,94882.88
2023-08-26T21:39:11.642Z,94874.34
2023-08-26T21:41:38.336Z,94877.81
2023-08-26T21:44:05.355Z,94874.69
2023-08-26T21:46:32.514Z,94872.41
2023-08-26T21:49:02.431Z,94859.75
2023-08-26T21:51:29.089Z,94874.97
2023-08-26T21:53:56.442Z,94875.03
2023-08-26T21:56:23.345Z,94878.97
2023-08-26T21:58:50.244Z,94892.31
2023-08-26T22:01:16.885Z,94878.06
2023-08-26T22:03:43.519Z,94880.78
2023-08-26T22:06:10.195Z,94878.25
2023-08-26T22:08:37.277Z,94883.53
2023-08-26T22:11:07.925Z,94889.81
2023-08-26T22:13:34.847Z,94890.41
2023-08-26T22:16:01.540Z,94893.56
2023-08-26T22:18:28.122Z,94881.88
2023-08-26T22:20:55.167Z,94889.91
2023-08-26T22:23:21.866Z,94883.00
2023-08-26T22:25:48.566Z,94883.63
2023-08-26T22:28:15.777Z,94889.19
2023-08-26T22:30:42.907Z,94879.78
2023-08-26T22:33:10.111Z,94871.47
2023-08-26T22:35:37.028Z,94882.47
2023-08-26T22:38:03.811Z,94882.47
2023-08-26T22:40:30.452Z,94890.56
2023-08-26T22:42:57.576Z,94877.97
2023-08-26T22:45:24.661Z,94886.31
2023-08-26T22:47:51.399Z,94885.31
2023-08-26T22:50:18.210Z,94878.22
2023-08-26T22:52:44.861Z,94885.13
2023-08-26T22:55:11.587Z,94889.38
2023-08-26T22:57:38.269Z,94882.78
2023-08-26T23:00:08.071Z,94875.00
2023-08-26T23:02:34.917Z,94867.72
2023-08-26T23:05:01.726Z,94868.50
2023-08-26T23:07:29.373Z,94867.41
2023-08-26T23:09:59.974Z,94868.78
2023-08-26T23:12:27.180Z,94870.72
2023-08-26T23:14:55.657Z,94859.84
2023-08-26T23:17:25.835Z,94865.59
2023-08-26T23:19:52.557Z,94847.91
2023-08-26T23:22:20.081Z,94866.56
2023-08-26T23:24:46.707Z,94864.84
2023-08-26T23:27:13.732Z,94857.84
2023-08-26T23:29:40.440Z,94844.19
2023-08-26T23:32:07.626Z,94857.19
2023-08-26T23:34:34.568Z,94844.94
2023-08-26T23:37:01.182Z,94829.91
2023-08-26T23:39:27.848Z,94849.19
2023-08-26T23:41:54.544Z,94855.50
2023-08-26T23:44:21.249Z,94843.97
2023-08-26T23:46:47.878Z,94840.34
2023-08-26T23:49:14.570Z,94839.91
2023-08-26T23:51:41.206Z,94840.56
2023-08-26T23:54:08.850Z,94842.69
2023-08-26T23:56:35.538Z,94835.41
2023-08-26T23:59:02.420Z,94851.63
